createdAt,value
2022-08-20T06:35:03.662Z,25.80
2022-08-20T06:37:33.691Z,23.30
2022-08-20T06:40:04.431Z,23.30
2022-08-20T06:42:32.751Z,23.40
2022-08-20T06:45:04.941Z,23.50
2022-08-20T07:03:01.740Z,23.50
2022-08-20T07:05:30.615Z,24.20
2022-08-20T07:07:59.524Z,24.20
2022-08-20T07:10:28.521Z,24.30
2022-08-20T07:12:57.663Z,24.40
2022-08-20T07:15:27.101Z,24.50
2022-08-20T07:18:01.531Z,24.50
2022-08-20T07:20:31.813Z,24.60
2022-08-20T07:23:00.666Z,24.60
2022-08-20T07:25:29.627Z,24.70
2022-08-20T07:28:02.186Z,24.70
2022-08-20T07:30:56.978Z,24.70
2022-08-20T07:33:29.174Z,24.80
2022-08-20T07:35:58.526Z,24.80
2022-08-20T07:38:29.355Z,24.80
2022-08-20T07:40:59.555Z,24.80
2022-08-20T07:43:28.385Z,24.90
2022-08-20T07:46:00.858Z,24.90
2022-08-20T07:48:32.525Z,25.00
2022-08-20T07:51:03.857Z,25.00
2022-08-20T07:53:35.587Z,25.10
2022-08-20T07:56:06.919Z,25.10
2022-08-20T07:58:38.651Z,25.20
2022-08-20T08:01:08.246Z,25.20
2022-08-20T08:03:49.069Z,25.30
2022-08-20T08:06:29.214Z,25.30
2022-08-20T08:09:03.160Z,25.40
2022-08-20T08:11:33.726Z,25.40
2022-08-20T08:14:02.407Z,25.50
2022-08-20T08:16:32.674Z,25.60
2022-08-20T08:19:02.796Z,25.70
2022-08-20T08:21:32.591Z,25.70
2022-08-20T08:24:00.952Z,25.80
2022-08-20T08:26:29.507Z,26.00
2022-08-20T08:28:58.366Z,26.10
2022-08-20T08:31:26.972Z,26.20
2022-08-20T08:33:55.517Z,26.30
2022-08-20T08:36:26.363Z,26.30
2022-08-20T08:38:55.156Z,26.40
2022-08-20T08:41:29.315Z,26.50
2022-08-20T08:44:08.202Z,26.60
2022-08-20T08:46:41.848Z,26.70
2022-08-20T08:49:13.738Z,26.80
2022-08-20T08:51:46.370Z,26.90
2022-08-20T08:54:17.748Z,27.00
2022-08-20T08:56:49.589Z,27.10
2022-08-20T08:59:20.470Z,27.10
2022-08-20T09:01:54.614Z,27.20
2022-08-20T09:04:25.285Z,27.40
2022-08-20T09:06:55.042Z,27.50
2022-08-20T09:09:27.732Z,27.60
2022-08-20T09:11:58.658Z,27.60
2022-08-20T09:14:27.236Z,27.60
2022-08-20T09:16:55.804Z,27.60
2022-08-20T09:19:24.040Z,27.70
2022-08-20T09:21:52.577Z,27.80
2022-08-20T09:24:22.452Z,27.90
2022-08-20T09:26:50.670Z,27.90
2022-08-20T09:29:21.995Z,28.00
2022-08-20T09:31:50.303Z,28.10
2022-08-20T09:34:21.911Z,28.10
2022-08-20T09:36:50.151Z,28.10
2022-08-20T09:39:18.475Z,28.10
2022-08-20T09:41:48.102Z,28.20
2022-08-20T09:44:19.972Z,28.10
2022-08-20T09:46:48.223Z,28.20
2022-08-20T09:49:17.780Z,28.20
2022-08-20T09:51:46.196Z,28.20
2022-08-20T09:54:14.476Z,28.30
2022-08-20T09:56:42.808Z,28.30
2022-08-20T09:59:14.160Z,28.40
2022-08-20T10:01:42.717Z,28.40
2022-08-20T10:04:11.073Z,28.40
2022-08-20T10:06:42.056Z,28.40
2022-08-20T10:09:10.290Z,28.40
2022-08-20T10:11:38.581Z,28.40
2022-08-20T10:14:09.051Z,28.40
2022-08-20T10:16:39.082Z,28.40
2022-08-20T10:19:07.752Z,28.40
2022-08-20T10:21:38.846Z,28.30
2022-08-20T10:24:08.011Z,28.20
2022-08-20T10:26:36.619Z,28.30
2022-08-20T10:29:04.924Z,28.30
2022-08-20T10:31:33.196Z,28.30
2022-08-20T10:34:02.817Z,28.30
2022-08-20T10:36:31.431Z,28.40
2022-08-20T10:38:59.760Z,28.40
2022-08-20T10:41:29.173Z,28.50
2022-08-20T10:43:57.602Z,28.50
2022-08-20T10:46:26.184Z,28.60
2022-08-20T10:48:54.742Z,28.60
2022-08-20T10:51:32.206Z,28.60
2022-08-20T10:54:01.273Z,28.60
2022-08-20T10:56:29.623Z,28.70
2022-08-20T10:58:58.066Z,28.70
2022-08-20T11:01:32.818Z,28.70
2022-08-20T11:04:02.622Z,28.70
2022-08-20T11:06:32.687Z,28.70
2022-08-20T11:09:01.146Z,28.70
2022-08-20T11:11:30.432Z,28.70
2022-08-20T11:13:59.339Z,28.60
2022-08-20T11:16:27.548Z,28.60
2022-08-20T11:18:55.860Z,28.60
2022-08-20T11:21:24.096Z,28.60
2022-08-20T11:23:53.787Z,28.60
2022-08-20T11:26:25.474Z,28.60
2022-08-20T11:28:53.678Z,28.60
2022-08-20T11:31:21.908Z,28.50
2022-08-20T11:33:50.142Z,28.60
2022-08-20T11:36:18.375Z,28.60
2022-08-20T11:38:46.578Z,28.60
2022-08-20T11:41:16.412Z,28.60
2022-08-20T11:43:59.483Z,28.70
2022-08-20T11:46:34.082Z,28.70
2022-08-20T11:49:02.873Z,28.70
2022-08-20T11:51:31.148Z,28.70
2022-08-20T11:54:17.260Z,28.80
2022-08-20T11:56:46.901Z,28.70
2022-08-20T11:59:15.407Z,28.80
2022-08-20T12:01:49.897Z,28.80
2022-08-20T12:04:33.441Z,28.80
2022-08-20T12:07:10.243Z,28.90
2022-08-20T12:09:41.172Z,29.00
2022-08-20T12:12:23.410Z,29.00
2022-08-20T12:14:52.228Z,29.10
2022-08-20T12:17:24.244Z,29.10
2022-08-20T12:19:54.046Z,29.20
2022-08-20T12:22:25.219Z,29.20
2022-08-20T12:24:54.404Z,29.30
2022-08-20T12:27:26.360Z,29.30
2022-08-20T12:29:57.101Z,29.30
2022-08-20T12:32:26.922Z,29.40
2022-08-20T12:34:55.591Z,29.40
2022-08-20T12:37:26.015Z,29.40
2022-08-20T12:39:56.569Z,29.50
2022-08-20T12:42:26.684Z,29.50
2022-08-20T12:44:54.902Z,29.50
2022-08-20T12:47:25.772Z,29.50
2022-08-20T12:49:57.019Z,29.50
2022-08-20T12:52:26.932Z,29.50
2022-08-20T12:54:56.071Z,29.50
2022-08-20T12:57:28.840Z,29.50
2022-08-20T12:59:57.735Z,29.50
2022-08-20T13:02:27.857Z,29.50
2022-08-20T13:04:56.169Z,29.50
2022-08-20T13:07:26.608Z,29.50
2022-08-20T13:09:56.062Z,29.50
2022-08-20T13:12:25.778Z,29.50
2022-08-20T13:14:54.098Z,29.40
2022-08-20T13:17:31.831Z,29.40
2022-08-20T13:20:10.761Z,29.40
2022-08-20T13:22:39.162Z,29.30
2022-08-20T13:25:09.344Z,29.40
2022-08-20T13:27:41.225Z,29.40
2022-08-20T13:30:12.199Z,29.40
2022-08-20T13:32:40.583Z,29.40
2022-08-20T13:35:11.609Z,29.50
2022-08-20T13:37:41.209Z,29.50
2022-08-20T13:40:11.163Z,29.60
2022-08-20T13:42:41.255Z,29.70
2022-08-20T13:45:10.681Z,29.70
2022-08-20T13:47:40.589Z,29.70
2022-08-20T13:50:11.596Z,29.80
2022-08-20T13:52:42.572Z,29.80
2022-08-20T13:55:15.191Z,30.00
2022-08-20T13:57:46.189Z,30.10
2022-08-20T14:00:17.976Z,30.10
2022-08-20T14:02:46.681Z,30.20
2022-08-20T14:05:17.173Z,30.20
2022-08-20T14:07:48.570Z,30.20
2022-08-20T14:10:19.995Z,30.30
2022-08-20T14:12:49.835Z,30.50
2022-08-20T14:15:19.012Z,30.50
2022-08-20T14:17:52.489Z,30.60
2022-08-20T14:20:23.244Z,30.60
2022-08-20T14:22:53.456Z,30.70
2022-08-20T14:25:23.710Z,30.60
2022-08-20T14:27:53.812Z,30.70
2022-08-20T14:30:24.165Z,30.80
2022-08-20T14:32:53.212Z,30.80
2022-08-20T14:35:22.675Z,30.80
2022-08-20T14:37:53.398Z,30.80
2022-08-20T14:40:23.840Z,30.80
2022-08-20T14:42:53.904Z,30.90
2022-08-20T14:45:23.837Z,30.90
2022-08-20T14:47:54.936Z,30.90
2022-08-20T14:50:26.028Z,30.90
2022-08-20T14:52:54.911Z,30.90
2022-08-20T14:55:25.269Z,30.90
2022-08-20T14:57:54.937Z,30.90
2022-08-20T15:00:26.265Z,30.90
2022-08-20T15:02:55.156Z,30.90
2022-08-20T15:05:23.842Z,30.90
2022-08-20T15:07:53.739Z,30.90
2022-08-20T15:10:24.924Z,30.90
2022-08-20T15:12:55.190Z,30.90
2022-08-20T15:15:24.196Z,30.80
2022-08-20T15:17:55.076Z,30.90
2022-08-20T15:20:25.854Z,30.80
2022-08-20T15:22:54.807Z,30.80
2022-08-20T15:25:25.711Z,30.80
2022-08-20T15:27:59.290Z,30.80
2022-08-20T15:30:31.702Z,30.80
2022-08-20T15:33:00.450Z,30.80
2022-08-20T15:35:29.720Z,30.80
2022-08-20T15:37:59.607Z,30.80
2022-08-20T15:40:30.690Z,30.70
2022-08-20T15:43:01.695Z,30.70
2022-08-20T15:45:30.133Z,30.70
2022-08-20T15:48:04.199Z,30.70
2022-08-20T15:50:53.466Z,30.60
2022-08-20T15:53:29.255Z,30.50
2022-08-20T15:56:11.273Z,30.50
2022-08-20T15:58:49.704Z,30.60
2022-08-20T16:01:26.173Z,30.70
2022-08-20T16:04:11.799Z,30.70
2022-08-20T16:06:41.036Z,30.70
2022-08-20T16:09:27.237Z,30.80
2022-08-20T16:12:01.794Z,30.80
2022-08-20T16:14:38.415Z,30.90
2022-08-20T16:17:11.044Z,30.90
2022-08-20T16:19:52.234Z,31.00
2022-08-20T16:22:22.106Z,31.00
2022-08-20T16:24:51.280Z,31.00
2022-08-20T16:27:28.853Z,31.00
2022-08-20T16:30:04.167Z,30.90
2022-08-20T16:32:39.665Z,30.90
2022-08-20T16:35:29.892Z,31.00
2022-08-20T16:38:11.423Z,31.00
2022-08-20T16:40:49.591Z,30.90
2022-08-20T16:43:23.034Z,30.90
2022-08-20T16:45:59.983Z,30.90
2022-08-20T16:48:35.038Z,30.80
2022-08-20T16:51:07.443Z,30.80
2022-08-20T16:53:37.154Z,30.80
2022-08-20T16:56:06.513Z,30.70
2022-08-20T16:58:34.920Z,30.70
2022-08-20T17:01:13.093Z,30.80
2022-08-20T17:03:49.949Z,30.70
2022-08-20T17:06:26.112Z,30.70
2022-08-20T17:08:55.164Z,30.60
2022-08-20T17:11:31.931Z,30.50
2022-08-20T17:14:09.011Z,30.40
2022-08-20T17:16:42.370Z,30.40
2022-08-20T17:19:19.884Z,30.30
2022-08-20T17:21:49.873Z,30.20
2022-08-20T17:24:24.975Z,30.10
2022-08-20T17:27:00.718Z,30.10
2022-08-20T17:29:33.133Z,30.00
2022-08-20T17:32:11.619Z,29.90
2022-08-20T17:34:46.233Z,29.80
2022-08-20T17:37:21.770Z,29.70
2022-08-20T17:39:51.862Z,29.60
2022-08-20T17:42:25.759Z,29.60
2022-08-20T17:44:57.127Z,29.50
2022-08-20T17:47:34.773Z,29.50
2022-08-20T17:50:09.662Z,29.50
2022-08-20T17:52:48.005Z,29.40
2022-08-20T17:55:17.871Z,29.30
2022-08-20T17:57:50.092Z,29.30
2022-08-20T18:00:23.668Z,29.20
2022-08-20T18:02:56.361Z,29.20
2022-08-20T18:05:24.933Z,29.10
2022-08-20T18:08:16.087Z,29.10
2022-08-20T18:10:57.273Z,29.00
2022-08-20T18:13:37.007Z,29.00
2022-08-20T18:16:26.662Z,28.90
2022-08-20T18:19:01.111Z,28.90
2022-08-20T18:21:56.338Z,28.80
2022-08-20T18:24:31.288Z,28.70
2022-08-20T18:27:02.597Z,28.70
2022-08-20T18:29:34.372Z,28.60
2022-08-20T18:32:05.278Z,28.60
2022-08-20T18:34:41.433Z,28.60
2022-08-20T18:37:25.499Z,28.50
2022-08-20T18:39:54.088Z,28.40
2022-08-20T18:42:30.377Z,28.40
2022-08-20T18:44:59.339Z,28.30
2022-08-20T18:47:40.264Z,28.30
2022-08-20T18:50:21.746Z,28.20
2022-08-20T18:52:53.097Z,28.20
2022-08-20T18:55:33.048Z,28.10
2022-08-20T18:58:03.951Z,28.10
2022-08-20T19:00:40.110Z,28.10
2022-08-20T19:03:17.931Z,28.00
2022-08-20T19:06:20.667Z,28.00
2022-08-20T19:08:54.554Z,27.90
2022-08-20T19:11:50.953Z,27.90
2022-08-20T19:14:36.954Z,27.80
2022-08-20T19:17:10.323Z,27.70
2022-08-20T19:19:39.559Z,27.70
2022-08-20T19:22:13.887Z,27.60
2022-08-20T19:24:44.431Z,27.60
2022-08-20T19:27:13.822Z,27.50
2022-08-20T19:55:36.318Z,27.40
2022-08-20T19:58:08.657Z,27.00
2022-08-20T20:00:41.287Z,27.00
2022-08-20T20:03:11.117Z,26.90
2022-08-20T20:05:50.405Z,26.80
2022-08-20T20:08:20.855Z,26.80
2022-08-20T20:10:55.074Z,26.70
2022-08-20T20:13:26.459Z,26.70
2022-08-20T20:16:00.751Z,26.70
2022-08-20T20:18:42.958Z,26.70
2022-08-20T20:21:15.386Z,26.70
2022-08-20T20:23:54.903Z,26.60
2022-08-20T20:26:24.671Z,26.60
2022-08-20T20:29:01.043Z,26.60
2022-08-20T20:31:31.870Z,26.60
2022-08-20T20:34:04.737Z,26.60
2022-08-20T20:36:36.928Z,26.50
2022-08-20T20:39:14.625Z,26.50
2022-08-20T20:41:52.431Z,26.50
2022-08-20T20:44:24.465Z,26.40
2022-08-20T20:47:00.299Z,26.40
2022-08-20T20:49:31.027Z,26.30
2022-08-20T20:52:01.850Z,26.30
2022-08-20T20:54:41.916Z,26.20
2022-08-20T20:57:35.328Z,26.30
2022-08-20T21:00:11.389Z,26.20
